Golden Shanghai — 9HA2862 — position and weather

sailwx.info

Track history (hours):
 
Tides and Currents Weather Stations Pressure Air Temp Water Temp Dewpoint Dewpoint Depression Visibility Wind Speed Wind Dir Waves Ship Positions

Golden Shanghai

Last reported at 2014-Jun-21 09:28 UTC. Time now 2014-Jul-28 06:23 UTC.
Position S 28°40' E 032°42'.
Warning: this ship's position is 36 days out of date.

Length 292 m; draft 10.4 m.

Type: Cargo ship. MMSI: 256456000.

Date/timePositionNaut miles runAvg speedWind from/ knotsBaromVisibWave heightAir tempDewpointWater temp
2014-Jun-21 09:28S 28°40' E 032°42'22 9.3
2014-Jun-21 07:08S 28°49' E 032°19'5 9.1
2014-Jun-21 06:32S 28°50' E 032°13'9 0.9
2014-Jun-20 20:33S 28°49' E 032°03'0 0.0
2014-Jun-20 18:06S 28°49' E 032°03'0 0.0
2014-Jun-20 17:27S 28°49' E 032°03'0 0.0
2014-Jun-20 16:29S 28°49' E 032°03'0 0.0
2014-Jun-20 12:12S 28°49' E 032°03'0 0.0
2014-Jun-19 18:31S 28°49' E 032°03'0 0.0
2014-Jun-19 17:24S 28°49' E 032°03'  
2014-Jun-15 16:22S 28°54' E 032°10'0 0.0
2014-Jun-15 15:29S 28°54' E 032°10'0 0.0
2014-Jun-15 14:28S 28°54' E 032°10'0 0.0
2014-Jun-15 13:22S 28°54' E 032°10'0 0.0
2014-Jun-15 12:28S 28°54' E 032°10'0 0.0
2014-Jun-15 11:22S 28°54' E 032°10'0 0.0
2014-Jun-15 10:28S 28°54' E 032°10'0 0.0
2014-Jun-15 09:16S 28°54' E 032°10'0 0.0
2014-Jun-15 08:28S 28°54' E 032°10'0 0.1
2014-Jun-15 07:28S 28°54' E 032°10'0 0.1
2014-Jun-15 06:29S 28°54' E 032°10'0 0.0
2014-Jun-15 05:29S 28°54' E 032°10'0 0.0
2014-Jun-15 02:10S 28°54' E 032°10'0 0.0
2014-Jun-15 01:28S 28°54' E 032°10'0 0.0
2014-Jun-15 00:22S 28°54' E 032°10'0 0.1
2014-Jun-14 23:22S 28°54' E 032°10'0 0.0
2014-Jun-14 21:22S 28°54' E 032°10'0 0.0
2014-Jun-14 20:16S 28°54' E 032°10'0 0.0
2014-Jun-14 19:28S 28°54' E 032°10'0 0.0
2014-Jun-14 18:22S 28°54' E 032°10'0 0.0
2014-Jun-14 17:28S 28°54' E 032°10'0 0.0
2014-Jun-14 16:28S 28°54' E 032°10'0 0.0
2014-Jun-14 15:28S 28°54' E 032°10'0 0.0
2014-Jun-14 14:28S 28°54' E 032°10'0 0.0
2014-Jun-14 13:28S 28°54' E 032°10'0 0.0
2014-Jun-14 12:28S 28°54' E 032°10'0 0.0
2014-Jun-14 11:28S 28°54' E 032°10'0 0.0
2014-Jun-14 10:28S 28°54' E 032°10'0 0.0
2014-Jun-14 09:28S 28°54' E 032°10'0 0.0
2014-Jun-14 08:16S 28°54' E 032°10'0 0.0
2014-Jun-14 07:28S 28°54' E 032°10'0 0.0
2014-Jun-14 06:29S 28°54' E 032°10'0 0.0
2014-Jun-14 05:28S 28°54' E 032°10'0 0.0
2014-Jun-14 04:28S 28°54' E 032°10'0 0.0
2014-Jun-14 03:29S 28°54' E 032°10'0 0.0
2014-Jun-14 02:29S 28°54' E 032°10'0 0.0
2014-Jun-14 01:10S 28°54' E 032°10'0 0.0
2014-Jun-14 00:29S 28°54' E 032°10'0 0.0
2014-Jun-13 23:28S 28°54' E 032°10'0 0.0
2014-Jun-13 22:28S 28°54' E 032°10'0 0.0
2014-Jun-13 21:28S 28°54' E 032°10'0 0.0
2014-Jun-13 20:28S 28°54' E 032°10'0 0.0
2014-Jun-13 19:17S 28°54' E 032°10'0 0.0
2014-Jun-13 18:22S 28°54' E 032°10'0 0.0
2014-Jun-13 17:28S 28°54' E 032°10'0 0.0
2014-Jun-13 16:28S 28°54' E 032°10'0 0.0
2014-Jun-13 15:29S 28°54' E 032°10'0 0.0
2014-Jun-13 14:28S 28°54' E 032°10'0 0.0
2014-Jun-13 13:22S 28°54' E 032°10'0 0.0
2014-Jun-13 12:29S 28°54' E 032°10'0 0.0
2014-Jun-13 11:10S 28°54' E 032°10'0 0.0
2014-Jun-13 10:28S 28°54' E 032°10'0 0.0
2014-Jun-13 09:16S 28°54' E 032°10'0 0.1
2014-Jun-13 08:22S 28°54' E 032°10'0 0.0
2014-Jun-13 07:28S 28°54' E 032°10'0 0.1
2014-Jun-13 06:22S 28°54' E 032°10'0 0.0
2014-Jun-13 05:10S 28°54' E 032°10'0 0.0
2014-Jun-12 11:29S 28°54' E 032°10'0 0.0
2014-Jun-12 10:16S 28°54' E 032°10'0 0.0
2014-Jun-12 09:29S 28°54' E 032°10'0 0.0
2014-Jun-12 08:28S 28°54' E 032°10'  
Track history (hours):
 
Tides and Currents Weather Stations Pressure Air Temp Water Temp Dewpoint Dewpoint Depression Visibility Wind Speed Wind Dir Waves Ship Positions

Golden Shanghai

Last reported at 2014-Jun-21 09:28 UTC. Time now 2014-Jul-28 06:23 UTC.
Position S 28°40' E 032°42'.
Warning: this ship's position is 36 days out of date.

Length 292 m; draft 10.4 m.

Type: Cargo ship. MMSI: 256456000.

Date/timePositionNaut miles runAvg speedWind from/ knotsBaromVisibWave heightAir tempDewpointWater temp
2014-Jun-21 09:28S 28°40' E 032°42'22 9.3
2014-Jun-21 07:08S 28°49' E 032°19'5 9.1
2014-Jun-21 06:32S 28°50' E 032°13'9 0.9
2014-Jun-20 20:33S 28°49' E 032°03'0 0.0
2014-Jun-20 18:06S 28°49' E 032°03'0 0.0
2014-Jun-20 17:27S 28°49' E 032°03'0 0.0
2014-Jun-20 16:29S 28°49' E 032°03'0 0.0
2014-Jun-20 12:12S 28°49' E 032°03'0 0.0
2014-Jun-19 18:31S 28°49' E 032°03'0 0.0
2014-Jun-19 17:24S 28°49' E 032°03'  
2014-Jun-15 16:22S 28°54' E 032°10'0 0.0
2014-Jun-15 15:29S 28°54' E 032°10'0 0.0
2014-Jun-15 14:28S 28°54' E 032°10'0 0.0
2014-Jun-15 13:22S 28°54' E 032°10'0 0.0
2014-Jun-15 12:28S 28°54' E 032°10'0 0.0
2014-Jun-15 11:22S 28°54' E 032°10'0 0.0
2014-Jun-15 10:28S 28°54' E 032°10'0 0.0
2014-Jun-15 09:16S 28°54' E 032°10'0 0.0
2014-Jun-15 08:28S 28°54' E 032°10'0 0.1
2014-Jun-15 07:28S 28°54' E 032°10'0 0.1
2014-Jun-15 06:29S 28°54' E 032°10'0 0.0
2014-Jun-15 05:29S 28°54' E 032°10'0 0.0
2014-Jun-15 02:10S 28°54' E 032°10'0 0.0
2014-Jun-15 01:28S 28°54' E 032°10'0 0.0
2014-Jun-15 00:22S 28°54' E 032°10'0 0.1
2014-Jun-14 23:22S 28°54' E 032°10'0 0.0
2014-Jun-14 21:22S 28°54' E 032°10'0 0.0
2014-Jun-14 20:16S 28°54' E 032°10'0 0.0
2014-Jun-14 19:28S 28°54' E 032°10'0 0.0
2014-Jun-14 18:22S 28°54' E 032°10'0 0.0
2014-Jun-14 17:28S 28°54' E 032°10'0 0.0
2014-Jun-14 16:28S 28°54' E 032°10'0 0.0
2014-Jun-14 15:28S 28°54' E 032°10'0 0.0
2014-Jun-14 14:28S 28°54' E 032°10'0 0.0
2014-Jun-14 13:28S 28°54' E 032°10'0 0.0
2014-Jun-14 12:28S 28°54' E 032°10'0 0.0
2014-Jun-14 11:28S 28°54' E 032°10'0 0.0
2014-Jun-14 10:28S 28°54' E 032°10'0 0.0
2014-Jun-14 09:28S 28°54' E 032°10'0 0.0
2014-Jun-14 08:16S 28°54' E 032°10'0 0.0
2014-Jun-14 07:28S 28°54' E 032°10'0 0.0
2014-Jun-14 06:29S 28°54' E 032°10'0 0.0
2014-Jun-14 05:28S 28°54' E 032°10'0 0.0
2014-Jun-14 04:28S 28°54' E 032°10'0 0.0
2014-Jun-14 03:29S 28°54' E 032°10'0 0.0
2014-Jun-14 02:29S 28°54' E 032°10'0 0.0
2014-Jun-14 01:10S 28°54' E 032°10'0 0.0
2014-Jun-14 00:29S 28°54' E 032°10'0 0.0
2014-Jun-13 23:28S 28°54' E 032°10'0 0.0
2014-Jun-13 22:28S 28°54' E 032°10'0 0.0
2014-Jun-13 21:28S 28°54' E 032°10'0 0.0
2014-Jun-13 20:28S 28°54' E 032°10'0 0.0
2014-Jun-13 19:17S 28°54' E 032°10'0 0.0
2014-Jun-13 18:22S 28°54' E 032°10'0 0.0
2014-Jun-13 17:28S 28°54' E 032°10'0 0.0
2014-Jun-13 16:28S 28°54' E 032°10'0 0.0
2014-Jun-13 15:29S 28°54' E 032°10'0 0.0
2014-Jun-13 14:28S 28°54' E 032°10'0 0.0
2014-Jun-13 13:22S 28°54' E 032°10'0 0.0
2014-Jun-13 12:29S 28°54' E 032°10'0 0.0
2014-Jun-13 11:10S 28°54' E 032°10'0 0.0
2014-Jun-13 10:28S 28°54' E 032°10'0 0.0
2014-Jun-13 09:16S 28°54' E 032°10'0 0.1
2014-Jun-13 08:22S 28°54' E 032°10'0 0.0
2014-Jun-13 07:28S 28°54' E 032°10'0 0.1
2014-Jun-13 06:22S 28°54' E 032°10'0 0.0
2014-Jun-13 05:10S 28°54' E 032°10'0 0.0
2014-Jun-12 11:29S 28°54' E 032°10'0 0.0
2014-Jun-12 10:16S 28°54' E 032°10'0 0.0
2014-Jun-12 09:29S 28°54' E 032°10'0 0.0
2014-Jun-12 08:28S 28°54' E 032°10'  

Dump ship's entire track history